sensor_id;sensor_type;location;lat;lon;timestamp;P1;durP1;ratioP1;P2;durP2;ratioP2
45065;SDS011;30830;53.704;10.004;2023-01-28T00:00:04;6.70;;;4.53;;
45065;SDS011;30830;53.704;10.004;2023-01-28T00:02:32;7.75;;;4.47;;
45065;SDS011;30830;53.704;10.004;2023-01-28T00:04:57;5.32;;;4.20;;
45065;SDS011;30830;53.704;10.004;2023-01-28T00:07:23;6.68;;;4.25;;
45065;SDS011;30830;53.704;10.004;2023-01-28T00:09:49;5.95;;;4.00;;
45065;SDS011;30830;53.704;10.004;2023-01-28T00:12:14;5.22;;;3.60;;
45065;SDS011;30830;53.704;10.004;2023-01-28T00:14:40;5.10;;;3.90;;
45065;SDS011;30830;53.704;10.004;2023-01-28T00:17:06;4.90;;;4.15;;
45065;SDS011;30830;53.704;10.004;2023-01-28T00:19:31;6.25;;;4.22;;
45065;SDS011;30830;53.704;10.004;2023-01-28T00:21:57;6.43;;;4.07;;
45065;SDS011;30830;53.704;10.004;2023-01-28T00:24:22;6.30;;;4.00;;
45065;SDS011;30830;53.704;10.004;2023-01-28T00:26:48;7.13;;;3.80;;
45065;SDS011;30830;53.704;10.004;2023-01-28T00:29:14;5.35;;;3.28;;
45065;SDS011;30830;53.704;10.004;2023-01-28T00:31:40;6.57;;;3.30;;
45065;SDS011;30830;53.704;10.004;2023-01-28T00:34:05;4.32;;;3.30;;
45065;SDS011;30830;53.704;10.004;2023-01-28T00:36:31;3.40;;;2.95;;
45065;SDS011;30830;53.704;10.004;2023-01-28T00:38:58;4.30;;;3.60;;
45065;SDS011;30830;53.704;10.004;2023-01-28T00:41:27;3.97;;;3.03;;
45065;SDS011;30830;53.704;10.004;2023-01-28T00:43:54;6.28;;;3.10;;
45065;SDS011;30830;53.704;10.004;2023-01-28T00:46:20;3.97;;;3.20;;
45065;SDS011;30830;53.704;10.004;2023-01-28T00:48:46;3.28;;;2.97;;
45065;SDS011;30830;53.704;10.004;2023-01-28T00:51:13;7.97;;;3.58;;
45065;SDS011;30830;53.704;10.004;2023-01-28T00:53:42;5.80;;;3.50;;
45065;SDS011;30830;53.704;10.004;2023-01-28T00:56:08;5.90;;;3.17;;
45065;SDS011;30830;53.704;10.004;2023-01-28T00:58:37;5.60;;;3.72;;
45065;SDS011;30830;53.704;10.004;2023-01-28T01:01:14;5.13;;;2.95;;
45065;SDS011;30830;53.704;10.004;2023-01-28T01:03:42;4.70;;;2.88;;
45065;SDS011;30830;53.704;10.004;2023-01-28T01:06:07;5.70;;;3.55;;
45065;SDS011;30830;53.704;10.004;2023-01-28T01:08:34;4.18;;;3.28;;
45065;SDS011;30830;53.704;10.004;2023-01-28T01:11:03;3.45;;;3.03;;
45065;SDS011;30830;53.704;10.004;2023-01-28T01:13:30;3.70;;;2.90;;
45065;SDS011;30830;53.704;10.004;2023-01-28T01:16:06;3.17;;;2.35;;
45065;SDS011;30830;53.704;10.004;2023-01-28T01:18:34;4.03;;;2.93;;
45065;SDS011;30830;53.704;10.004;2023-01-28T01:21:00;3.65;;;2.75;;
45065;SDS011;30830;53.704;10.004;2023-01-28T01:23:27;3.80;;;2.55;;
45065;SDS011;30830;53.704;10.004;2023-01-28T01:25:54;2.83;;;2.47;;
45065;SDS011;30830;53.704;10.004;2023-01-28T01:28:20;4.22;;;3.08;;
45065;SDS011;30830;53.704;10.004;2023-01-28T01:30:46;2.75;;;2.38;;
45065;SDS011;30830;53.704;10.004;2023-01-28T01:33:12;3.10;;;2.38;;
45065;SDS011;30830;53.704;10.004;2023-01-28T01:35:39;4.60;;;2.25;;
45065;SDS011;30830;53.704;10.004;2023-01-28T01:38:04;2.63;;;2.38;;
45065;SDS011;30830;53.704;10.004;2023-01-28T01:40:30;3.55;;;1.90;;
45065;SDS011;30830;53.704;10.004;2023-01-28T01:42:56;3.20;;;2.08;;
45065;SDS011;30830;53.704;10.004;2023-01-28T01:45:21;2.42;;;2.22;;
45065;SDS011;30830;53.704;10.004;2023-01-28T01:48:01;2.88;;;2.22;;
45065;SDS011;30830;53.704;10.004;2023-01-28T01:50:38;2.58;;;1.90;;
45065;SDS011;30830;53.704;10.004;2023-01-28T01:53:19;3.45;;;2.22;;
45065;SDS011;30830;53.704;10.004;2023-01-28T01:55:48;2.75;;;1.92;;
45065;SDS011;30830;53.704;10.004;2023-01-28T01:58:17;2.88;;;1.85;;
45065;SDS011;30830;53.704;10.004;2023-01-28T02:00:45;6.95;;;2.03;;
45065;SDS011;30830;53.704;10.004;2023-01-28T02:03:11;7.00;;;4.40;;
45065;SDS011;30830;53.704;10.004;2023-01-28T02:05:38;7.47;;;4.30;;
45065;SDS011;30830;53.704;10.004;2023-01-28T02:08:04;5.28;;;3.50;;
45065;SDS011;30830;53.704;10.004;2023-01-28T02:10:47;6.38;;;2.33;;
45065;SDS011;30830;53.704;10.004;2023-01-28T02:13:18;2.95;;;2.20;;
45065;SDS011;30830;53.704;10.004;2023-01-28T02:15:48;3.15;;;2.20;;
45065;SDS011;30830;53.704;10.004;2023-01-28T02:18:14;5.45;;;2.20;;
45065;SDS011;30830;53.704;10.004;2023-01-28T02:20:54;4.75;;;2.33;;
45065;SDS011;30830;53.704;10.004;2023-01-28T02:29:06;2.20;;;1.75;;
45065;SDS011;30830;53.704;10.004;2023-01-28T02:31:57;6.03;;;2.35;;
45065;SDS011;30830;53.704;10.004;2023-01-28T02:36:56;2.30;;;1.85;;
45065;SDS011;30830;53.704;10.004;2023-01-28T02:39:29;3.00;;;2.28;;
45065;SDS011;30830;53.704;10.004;2023-01-28T02:42:03;3.67;;;2.40;;
45065;SDS011;30830;53.704;10.004;2023-01-28T02:44:31;2.75;;;1.90;;
45065;SDS011;30830;53.704;10.004;2023-01-28T02:46:57;2.78;;;2.58;;
45065;SDS011;30830;53.704;10.004;2023-01-28T02:49:51;4.18;;;1.90;;
45065;SDS011;30830;53.704;10.004;2023-01-28T02:52:29;4.20;;;2.50;;
45065;SDS011;30830;53.704;10.004;2023-01-28T02:55:52;2.70;;;1.70;;
45065;SDS011;30830;53.704;10.004;2023-01-28T03:01:13;2.38;;;1.45;;
45065;SDS011;30830;53.704;10.004;2023-01-28T03:06:57;4.00;;;2.30;;
45065;SDS011;30830;53.704;10.004;2023-01-28T03:09:28;2.30;;;1.92;;
45065;SDS011;30830;53.704;10.004;2023-01-28T03:12:02;3.63;;;1.95;;
45065;SDS011;30830;53.704;10.004;2023-01-28T03:14:48;2.67;;;2.08;;
45065;SDS011;30830;53.704;10.004;2023-01-28T03:17:39;2.72;;;1.85;;
45065;SDS011;30830;53.704;10.004;2023-01-28T03:20:30;4.18;;;2.42;;
45065;SDS011;30830;53.704;10.004;2023-01-28T03:23:59;2.58;;;1.95;;
45065;SDS011;30830;53.704;10.004;2023-01-28T03:26:56;2.90;;;2.03;;
45065;SDS011;30830;53.704;10.004;2023-01-28T03:29:50;6.07;;;2.60;;
45065;SDS011;30830;53.704;10.004;2023-01-28T03:32:38;4.70;;;2.40;;
45065;SDS011;30830;53.704;10.004;2023-01-28T03:35:23;4.30;;;2.30;;
45065;SDS011;30830;53.704;10.004;2023-01-28T03:38:13;2.67;;;2.08;;
45065;SDS011;30830;53.704;10.004;2023-01-28T03:40:55;2.25;;;1.92;;
45065;SDS011;30830;53.704;10.004;2023-01-28T03:43:22;4.32;;;2.50;;
45065;SDS011;30830;53.704;10.004;2023-01-28T03:45:48;2.47;;;2.28;;
45065;SDS011;30830;53.704;10.004;2023-01-28T03:48:16;3.00;;;1.95;;
45065;SDS011;30830;53.704;10.004;2023-01-28T03:50:43;5.68;;;2.95;;
45065;SDS011;30830;53.704;10.004;2023-01-28T03:53:08;4.85;;;2.45;;
45065;SDS011;30830;53.704;10.004;2023-01-28T03:55:38;3.42;;;2.10;;
45065;SDS011;30830;53.704;10.004;2023-01-28T03:58:03;2.97;;;1.98;;
45065;SDS011;30830;53.704;10.004;2023-01-28T04:00:32;2.13;;;1.90;;
45065;SDS011;30830;53.704;10.004;2023-01-28T04:03:06;2.55;;;2.20;;
45065;SDS011;30830;53.704;10.004;2023-01-28T04:05:41;4.10;;;2.25;;
45065;SDS011;30830;53.704;10.004;2023-01-28T04:08:23;3.83;;;2.10;;
45065;SDS011;30830;53.704;10.004;2023-01-28T04:10:49;4.47;;;2.38;;
45065;SDS011;30830;53.704;10.004;2023-01-28T04:13:15;2.78;;;2.10;;
45065;SDS011;30830;53.704;10.004;2023-01-28T04:15:42;5.22;;;3.30;;
45065;SDS011;30830;53.704;10.004;2023-01-28T04:18:08;4.88;;;3.25;;
45065;SDS011;30830;53.704;10.004;2023-01-28T04:20:34;6.55;;;3.83;;
45065;SDS011;30830;53.704;10.004;2023-01-28T04:23:00;5.80;;;3.60;;
45065;SDS011;30830;53.704;10.004;2023-01-28T04:25:26;4.40;;;2.67;;
45065;SDS011;30830;53.704;10.004;2023-01-28T04:27:51;5.35;;;3.08;;
45065;SDS011;30830;53.704;10.004;2023-01-28T04:30:17;3.17;;;2.50;;
45065;SDS011;30830;53.704;10.004;2023-01-28T04:32:44;3.95;;;2.92;;
45065;SDS011;30830;53.704;10.004;2023-01-28T04:35:10;3.30;;;2.03;;
45065;SDS011;30830;53.704;10.004;2023-01-28T04:37:36;6.35;;;4.25;;
45065;SDS011;30830;53.704;10.004;2023-01-28T04:40:02;9.23;;;5.32;;
45065;SDS011;30830;53.704;10.004;2023-01-28T04:42:28;7.25;;;4.85;;
45065;SDS011;30830;53.704;10.004;2023-01-28T04:44:53;6.90;;;4.45;;
45065;SDS011;30830;53.704;10.004;2023-01-28T04:47:19;7.78;;;4.68;;
45065;SDS011;30830;53.704;10.004;2023-01-28T04:49:45;10.23;;;4.43;;
45065;SDS011;30830;53.704;10.004;2023-01-28T04:52:10;6.25;;;4.10;;
45065;SDS011;30830;53.704;10.004;2023-01-28T04:54:36;5.85;;;3.83;;
45065;SDS011;30830;53.704;10.004;2023-01-28T04:57:01;5.88;;;2.83;;
45065;SDS011;30830;53.704;10.004;2023-01-28T04:59:27;4.00;;;3.10;;
45065;SDS011;30830;53.704;10.004;2023-01-28T05:01:53;3.00;;;2.60;;
45065;SDS011;30830;53.704;10.004;2023-01-28T05:04:19;5.65;;;3.15;;
45065;SDS011;30830;53.704;10.004;2023-01-28T05:06:44;4.63;;;3.45;;
45065;SDS011;30830;53.704;10.004;2023-01-28T05:09:10;5.38;;;2.88;;
45065;SDS011;30830;53.704;10.004;2023-01-28T05:11:35;3.25;;;2.47;;
45065;SDS011;30830;53.704;10.004;2023-01-28T05:14:01;4.95;;;2.50;;
45065;SDS011;30830;53.704;10.004;2023-01-28T05:16:27;4.32;;;2.83;;
45065;SDS011;30830;53.704;10.004;2023-01-28T05:18:52;3.63;;;2.63;;
45065;SDS011;30830;53.704;10.004;2023-01-28T05:21:18;5.05;;;2.50;;
45065;SDS011;30830;53.704;10.004;2023-01-28T05:23:44;4.35;;;2.67;;
45065;SDS011;30830;53.704;10.004;2023-01-28T05:26:09;5.18;;;2.83;;
45065;SDS011;30830;53.704;10.004;2023-01-28T05:28:35;5.28;;;2.92;;
45065;SDS011;30830;53.704;10.004;2023-01-28T05:31:04;5.68;;;3.35;;
45065;SDS011;30830;53.704;10.004;2023-01-28T05:33:31;4.38;;;3.03;;
45065;SDS011;30830;53.704;10.004;2023-01-28T05:35:56;5.10;;;3.25;;
45065;SDS011;30830;53.704;10.004;2023-01-28T05:38:22;4.30;;;3.08;;
45065;SDS011;30830;53.704;10.004;2023-01-28T05:40:48;3.22;;;2.92;;
45065;SDS011;30830;53.704;10.004;2023-01-28T05:43:13;5.10;;;2.85;;
45065;SDS011;30830;53.704;10.004;2023-01-28T05:45:39;3.40;;;2.92;;
45065;SDS011;30830;53.704;10.004;2023-01-28T05:48:05;4.65;;;3.17;;
45065;SDS011;30830;53.704;10.004;2023-01-28T05:50:31;8.95;;;3.15;;
45065;SDS011;30830;53.704;10.004;2023-01-28T05:52:57;3.70;;;3.00;;
45065;SDS011;30830;53.704;10.004;2023-01-28T05:55:23;5.55;;;3.30;;
45065;SDS011;30830;53.704;10.004;2023-01-28T05:57:48;5.55;;;3.08;;
45065;SDS011;30830;53.704;10.004;2023-01-28T06:00:15;5.18;;;3.17;;
45065;SDS011;30830;53.704;10.004;2023-01-28T06:02:41;3.15;;;2.85;;
45065;SDS011;30830;53.704;10.004;2023-01-28T06:05:07;3.22;;;2.65;;
45065;SDS011;30830;53.704;10.004;2023-01-28T06:07:33;3.30;;;3.00;;
45065;SDS011;30830;53.704;10.004;2023-01-28T06:09:59;3.42;;;2.83;;
45065;SDS011;30830;53.704;10.004;2023-01-28T06:12:24;2.95;;;2.75;;
45065;SDS011;30830;53.704;10.004;2023-01-28T06:14:50;2.78;;;2.58;;
45065;SDS011;30830;53.704;10.004;2023-01-28T06:17:16;2.75;;;2.50;;
45065;SDS011;30830;53.704;10.004;2023-01-28T06:19:41;4.35;;;2.75;;
45065;SDS011;30830;53.704;10.004;2023-01-28T06:22:07;5.93;;;3.58;;
45065;SDS011;30830;53.704;10.004;2023-01-28T06:24:33;3.40;;;3.10;;
45065;SDS011;30830;53.704;10.004;2023-01-28T06:26:59;2.75;;;2.22;;
45065;SDS011;30830;53.704;10.004;2023-01-28T06:29:25;3.03;;;2.70;;
45065;SDS011;30830;53.704;10.004;2023-01-28T06:31:50;3.20;;;2.60;;
45065;SDS011;30830;53.704;10.004;2023-01-28T06:34:16;3.67;;;3.30;;
45065;SDS011;30830;53.704;10.004;2023-01-28T06:36:42;4.90;;;2.45;;
45065;SDS011;30830;53.704;10.004;2023-01-28T06:39:07;5.63;;;3.42;;
45065;SDS011;30830;53.704;10.004;2023-01-28T06:41:33;5.13;;;3.13;;
45065;SDS011;30830;53.704;10.004;2023-01-28T06:43:58;4.13;;;3.05;;
45065;SDS011;30830;53.704;10.004;2023-01-28T06:46:24;3.20;;;2.90;;
45065;SDS011;30830;53.704;10.004;2023-01-28T06:48:49;7.65;;;4.22;;
45065;SDS011;30830;53.704;10.004;2023-01-28T06:51:15;4.05;;;2.97;;
45065;SDS011;30830;53.704;10.004;2023-01-28T06:53:41;5.03;;;3.30;;
45065;SDS011;30830;53.704;10.004;2023-01-28T06:56:06;6.00;;;3.72;;
45065;SDS011;30830;53.704;10.004;2023-01-28T06:58:32;4.63;;;3.40;;
45065;SDS011;30830;53.704;10.004;2023-01-28T07:00:58;5.47;;;3.75;;
45065;SDS011;30830;53.704;10.004;2023-01-28T07:03:24;5.53;;;4.15;;
45065;SDS011;30830;53.704;10.004;2023-01-28T07:05:49;6.25;;;4.78;;
45065;SDS011;30830;53.704;10.004;2023-01-28T07:08:15;6.38;;;4.50;;
45065;SDS011;30830;53.704;10.004;2023-01-28T07:10:41;5.55;;;4.65;;
45065;SDS011;30830;53.704;10.004;2023-01-28T07:13:07;7.15;;;5.75;;
45065;SDS011;30830;53.704;10.004;2023-01-28T07:15:33;4.95;;;4.45;;
45065;SDS011;30830;53.704;10.004;2023-01-28T07:17:59;7.28;;;5.88;;
45065;SDS011;30830;53.704;10.004;2023-01-28T07:20:25;9.23;;;5.80;;
45065;SDS011;30830;53.704;10.004;2023-01-28T07:22:50;6.68;;;5.28;;
45065;SDS011;30830;53.704;10.004;2023-01-28T07:25:16;7.10;;;6.07;;
45065;SDS011;30830;53.704;10.004;2023-01-28T07:27:45;7.97;;;5.32;;
45065;SDS011;30830;53.704;10.004;2023-01-28T07:30:16;8.57;;;6.07;;
45065;SDS011;30830;53.704;10.004;2023-01-28T07:32:42;8.40;;;6.25;;
45065;SDS011;30830;53.704;10.004;2023-01-28T07:35:08;9.48;;;6.72;;
45065;SDS011;30830;53.704;10.004;2023-01-28T07:37:34;9.10;;;7.43;;
45065;SDS011;30830;53.704;10.004;2023-01-28T07:40:00;7.22;;;5.88;;
45065;SDS011;30830;53.704;10.004;2023-01-28T07:42:25;8.02;;;6.85;;
45065;SDS011;30830;53.704;10.004;2023-01-28T07:44:51;9.30;;;7.63;;
45065;SDS011;30830;53.704;10.004;2023-01-28T07:47:16;10.13;;;6.47;;
45065;SDS011;30830;53.704;10.004;2023-01-28T07:49:43;10.75;;;6.82;;
45065;SDS011;30830;53.704;10.004;2023-01-28T07:52:09;8.38;;;7.28;;
45065;SDS011;30830;53.704;10.004;2023-01-28T07:54:34;8.82;;;6.82;;
45065;SDS011;30830;53.704;10.004;2023-01-28T07:57:00;12.27;;;8.18;;
45065;SDS011;30830;53.704;10.004;2023-01-28T07:59:26;9.63;;;6.85;;
45065;SDS011;30830;53.704;10.004;2023-01-28T08:01:52;9.52;;;6.60;;
45065;SDS011;30830;53.704;10.004;2023-01-28T08:04:20;11.68;;;7.45;;
45065;SDS011;30830;53.704;10.004;2023-01-28T08:06:45;11.63;;;7.30;;
45065;SDS011;30830;53.704;10.004;2023-01-28T08:09:11;13.63;;;7.70;;
45065;SDS011;30830;53.704;10.004;2023-01-28T08:11:37;8.43;;;7.15;;
45065;SDS011;30830;53.704;10.004;2023-01-28T08:14:03;10.52;;;6.43;;
45065;SDS011;30830;53.704;10.004;2023-01-28T08:16:29;11.20;;;7.13;;
45065;SDS011;30830;53.704;10.004;2023-01-28T08:18:55;9.55;;;7.68;;
45065;SDS011;30830;53.704;10.004;2023-01-28T08:21:21;9.32;;;6.90;;
45065;SDS011;30830;53.704;10.004;2023-01-28T08:23:46;9.93;;;7.60;;
45065;SDS011;30830;53.704;10.004;2023-01-28T08:26:12;11.65;;;8.02;;
45065;SDS011;30830;53.704;10.004;2023-01-28T08:28:38;12.07;;;9.23;;
45065;SDS011;30830;53.704;10.004;2023-01-28T08:31:03;13.70;;;10.27;;
45065;SDS011;30830;53.704;10.004;2023-01-28T08:33:29;12.52;;;9.40;;
45065;SDS011;30830;53.704;10.004;2023-01-28T08:35:54;13.13;;;10.30;;
45065;SDS011;30830;53.704;10.004;2023-01-28T08:38:20;11.15;;;8.73;;
45065;SDS011;30830;53.704;10.004;2023-01-28T08:40:46;13.50;;;9.23;;
45065;SDS011;30830;53.704;10.004;2023-01-28T08:43:14;13.13;;;8.50;;
45065;SDS011;30830;53.704;10.004;2023-01-28T08:45:40;13.23;;;8.45;;
45065;SDS011;30830;53.704;10.004;2023-01-28T08:48:06;13.75;;;8.32;;
45065;SDS011;30830;53.704;10.004;2023-01-28T08:50:36;13.63;;;9.10;;
45065;SDS011;30830;53.704;10.004;2023-01-28T08:53:08;13.73;;;9.90;;
45065;SDS011;30830;53.704;10.004;2023-01-28T08:55:39;17.15;;;9.80;;
45065;SDS011;30830;53.704;10.004;2023-01-28T08:58:06;13.68;;;8.65;;
45065;SDS011;30830;53.704;10.004;2023-01-28T09:00:34;11.23;;;8.63;;
45065;SDS011;30830;53.704;10.004;2023-01-28T09:03:00;11.07;;;8.80;;
45065;SDS011;30830;53.704;10.004;2023-01-28T09:05:26;12.75;;;9.05;;
45065;SDS011;30830;53.704;10.004;2023-01-28T09:07:52;10.05;;;8.20;;
45065;SDS011;30830;53.704;10.004;2023-01-28T09:10:18;12.00;;;8.82;;
45065;SDS011;30830;53.704;10.004;2023-01-28T09:12:46;12.40;;;7.68;;
45065;SDS011;30830;53.704;10.004;2023-01-28T09:15:12;9.23;;;7.72;;
45065;SDS011;30830;53.704;10.004;2023-01-28T09:17:38;12.98;;;9.25;;
45065;SDS011;30830;53.704;10.004;2023-01-28T09:20:04;10.85;;;8.30;;
45065;SDS011;30830;53.704;10.004;2023-01-28T09:22:31;10.90;;;8.98;;
45065;SDS011;30830;53.704;10.004;2023-01-28T09:24:57;12.25;;;8.43;;
45065;SDS011;30830;53.704;10.004;2023-01-28T09:27:22;9.25;;;7.78;;
45065;SDS011;30830;53.704;10.004;2023-01-28T09:29:48;10.30;;;8.02;;
45065;SDS011;30830;53.704;10.004;2023-01-28T09:32:14;10.32;;;7.20;;
45065;SDS011;30830;53.704;10.004;2023-01-28T09:34:39;11.38;;;8.00;;
45065;SDS011;30830;53.704;10.004;2023-01-28T09:37:05;12.15;;;7.47;;
45065;SDS011;30830;53.704;10.004;2023-01-28T09:39:31;9.27;;;7.30;;
45065;SDS011;30830;53.704;10.004;2023-01-28T09:47:18;10.02;;;7.10;;
45065;SDS011;30830;53.704;10.004;2023-01-28T09:49:50;10.20;;;7.35;;
45065;SDS011;30830;53.704;10.004;2023-01-28T09:52:18;10.63;;;6.97;;
45065;SDS011;30830;53.704;10.004;2023-01-28T09:54:48;8.52;;;7.28;;
45065;SDS011;30830;53.704;10.004;2023-01-28T09:57:29;10.10;;;7.30;;
45065;SDS011;30830;53.704;10.004;2023-01-28T10:00:01;16.10;;;10.48;;
45065;SDS011;30830;53.704;10.004;2023-01-28T10:02:43;21.67;;;12.63;;
45065;SDS011;30830;53.704;10.004;2023-01-28T10:08:15;12.15;;;10.40;;
45065;SDS011;30830;53.704;10.004;2023-01-28T10:16:42;11.52;;;8.85;;
45065;SDS011;30830;53.704;10.004;2023-01-28T10:19:16;10.13;;;8.50;;
45065;SDS011;30830;53.704;10.004;2023-01-28T10:22:04;11.75;;;8.40;;
45065;SDS011;30830;53.704;10.004;2023-01-28T10:24:38;12.50;;;8.48;;
45065;SDS011;30830;53.704;10.004;2023-01-28T10:27:15;10.07;;;7.85;;
45065;SDS011;30830;53.704;10.004;2023-01-28T10:29:43;8.25;;;7.00;;
45065;SDS011;30830;53.704;10.004;2023-01-28T10:34:58;13.20;;;9.77;;
45065;SDS011;30830;53.704;10.004;2023-01-28T10:37:26;15.82;;;10.18;;
45065;SDS011;30830;53.704;10.004;2023-01-28T10:39:54;11.75;;;9.38;;
45065;SDS011;30830;53.704;10.004;2023-01-28T10:42:32;14.80;;;10.25;;
45065;SDS011;30830;53.704;10.004;2023-01-28T10:45:06;13.02;;;9.27;;
45065;SDS011;30830;53.704;10.004;2023-01-28T10:48:00;14.52;;;9.50;;
45065;SDS011;30830;53.704;10.004;2023-01-28T10:50:31;11.10;;;9.32;;
45065;SDS011;30830;53.704;10.004;2023-01-28T10:53:05;13.30;;;10.20;;
45065;SDS011;30830;53.704;10.004;2023-01-28T10:55:33;14.73;;;10.40;;
45065;SDS011;30830;53.704;10.004;2023-01-28T10:58:16;13.18;;;9.52;;
45065;SDS011;30830;53.704;10.004;2023-01-28T11:00:44;11.98;;;9.43;;
45065;SDS011;30830;53.704;10.004;2023-01-28T11:03:18;10.32;;;9.18;;
45065;SDS011;30830;53.704;10.004;2023-01-28T11:05:52;11.50;;;9.13;;
45065;SDS011;30830;53.704;10.004;2023-01-28T11:08:19;12.57;;;10.45;;
45065;SDS011;30830;53.704;10.004;2023-01-28T11:10:47;12.95;;;9.55;;
45065;SDS011;30830;53.704;10.004;2023-01-28T11:13:14;11.52;;;8.90;;
45065;SDS011;30830;53.704;10.004;2023-01-28T11:15:48;12.60;;;9.85;;
45065;SDS011;30830;53.704;10.004;2023-01-28T11:18:21;13.15;;;9.77;;
45065;SDS011;30830;53.704;10.004;2023-01-28T11:20:53;13.90;;;9.43;;
45065;SDS011;30830;53.704;10.004;2023-01-28T11:23:26;13.00;;;9.90;;
45065;SDS011;30830;53.704;10.004;2023-01-28T11:25:59;13.80;;;9.52;;
45065;SDS011;30830;53.704;10.004;2023-01-28T11:28:31;13.20;;;9.63;;
45065;SDS011;30830;53.704;10.004;2023-01-28T11:30:59;11.85;;;9.80;;
45065;SDS011;30830;53.704;10.004;2023-01-28T11:33:35;12.00;;;9.73;;
45065;SDS011;30830;53.704;10.004;2023-01-28T11:36:24;19.67;;;9.15;;
45065;SDS011;30830;53.704;10.004;2023-01-28T11:38:51;12.98;;;8.77;;
45065;SDS011;30830;53.704;10.004;2023-01-28T11:41:28;11.00;;;8.13;;
45065;SDS011;30830;53.704;10.004;2023-01-28T11:43:59;13.07;;;9.30;;
45065;SDS011;30830;53.704;10.004;2023-01-28T11:52:33;14.68;;;9.52;;
45065;SDS011;30830;53.704;10.004;2023-01-28T11:58:14;12.57;;;9.90;;
45065;SDS011;30830;53.704;10.004;2023-01-28T12:00:51;12.90;;;9.38;;
45065;SDS011;30830;53.704;10.004;2023-01-28T12:06:16;11.52;;;8.88;;
45065;SDS011;30830;53.704;10.004;2023-01-28T12:09:02;12.60;;;9.45;;
45065;SDS011;30830;53.704;10.004;2023-01-28T12:20:37;14.38;;;9.60;;
45065;SDS011;30830;53.704;10.004;2023-01-28T12:26:14;12.45;;;9.13;;
45065;SDS011;30830;53.704;10.004;2023-01-28T12:31:51;12.50;;;8.98;;
45065;SDS011;30830;53.704;10.004;2023-01-28T12:37:34;11.27;;;9.60;;
45065;SDS011;30830;53.704;10.004;2023-01-28T12:40:30;13.43;;;9.50;;
45065;SDS011;30830;53.704;10.004;2023-01-28T12:43:09;10.82;;;9.30;;
45065;SDS011;30830;53.704;10.004;2023-01-28T12:45:43;11.70;;;9.85;;
45065;SDS011;30830;53.704;10.004;2023-01-28T12:51:10;17.30;;;9.85;;
45065;SDS011;30830;53.704;10.004;2023-01-28T12:53:55;17.73;;;11.20;;
45065;SDS011;30830;53.704;10.004;2023-01-28T12:58:59;12.60;;;9.32;;
45065;SDS011;30830;53.704;10.004;2023-01-28T13:01:46;13.95;;;9.52;;
45065;SDS011;30830;53.704;10.004;2023-01-28T13:04:30;15.48;;;10.85;;
45065;SDS011;30830;53.704;10.004;2023-01-28T13:07:05;13.32;;;10.35;;
45065;SDS011;30830;53.704;10.004;2023-01-28T13:09:37;16.65;;;10.68;;
45065;SDS011;30830;53.704;10.004;2023-01-28T13:12:08;12.88;;;10.20;;
45065;SDS011;30830;53.704;10.004;2023-01-28T13:14:35;13.88;;;9.55;;
45065;SDS011;30830;53.704;10.004;2023-01-28T13:17:07;15.52;;;10.25;;
45065;SDS011;30830;53.704;10.004;2023-01-28T13:19:37;15.73;;;11.13;;
45065;SDS011;30830;53.704;10.004;2023-01-28T13:22:11;14.38;;;11.40;;
45065;SDS011;30830;53.704;10.004;2023-01-28T13:24:51;22.90;;;10.38;;
45065;SDS011;30830;53.704;10.004;2023-01-28T13:27:21;15.75;;;11.18;;
45065;SDS011;30830;53.704;10.004;2023-01-28T13:30:01;15.18;;;10.55;;
45065;SDS011;30830;53.704;10.004;2023-01-28T13:32:53;13.18;;;10.93;;
45065;SDS011;30830;53.704;10.004;2023-01-28T13:35:37;13.10;;;9.93;;
45065;SDS011;30830;53.704;10.004;2023-01-28T13:38:08;13.70;;;9.63;;
45065;SDS011;30830;53.704;10.004;2023-01-28T13:40:40;13.60;;;10.07;;
45065;SDS011;30830;53.704;10.004;2023-01-28T13:43:23;13.77;;;10.07;;
45065;SDS011;30830;53.704;10.004;2023-01-28T13:45:59;23.35;;;15.73;;
45065;SDS011;30830;53.704;10.004;2023-01-28T13:51:09;24.75;;;17.50;;
45065;SDS011;30830;53.704;10.004;2023-01-28T13:56:41;20.35;;;14.43;;
45065;SDS011;30830;53.704;10.004;2023-01-28T14:08:14;16.25;;;11.63;;
45065;SDS011;30830;53.704;10.004;2023-01-28T14:10:54;15.50;;;12.13;;
45065;SDS011;30830;53.704;10.004;2023-01-28T14:18:52;19.05;;;13.50;;
45065;SDS011;30830;53.704;10.004;2023-01-28T14:21:20;16.05;;;11.07;;
45065;SDS011;30830;53.704;10.004;2023-01-28T14:23:47;16.65;;;10.45;;
45065;SDS011;30830;53.704;10.004;2023-01-28T14:28:54;14.60;;;10.35;;
45065;SDS011;30830;53.704;10.004;2023-01-28T14:31:41;14.52;;;10.63;;
45065;SDS011;30830;53.704;10.004;2023-01-28T14:34:13;15.32;;;11.02;;
45065;SDS011;30830;53.704;10.004;2023-01-28T14:36:44;13.88;;;10.55;;
45065;SDS011;30830;53.704;10.004;2023-01-28T14:39:18;13.88;;;9.98;;
45065;SDS011;30830;53.704;10.004;2023-01-28T14:41:47;14.63;;;9.70;;
45065;SDS011;30830;53.704;10.004;2023-01-28T14:44:34;13.20;;;10.27;;
45065;SDS011;30830;53.704;10.004;2023-01-28T14:49:37;15.68;;;11.20;;
45065;SDS011;30830;53.704;10.004;2023-01-28T14:57:42;13.88;;;10.10;;
45065;SDS011;30830;53.704;10.004;2023-01-28T15:00:19;11.90;;;8.63;;
45065;SDS011;30830;53.704;10.004;2023-01-28T15:02:50;12.75;;;10.00;;
45065;SDS011;30830;53.704;10.004;2023-01-28T15:05:24;14.73;;;10.65;;
45065;SDS011;30830;53.704;10.004;2023-01-28T15:07:52;12.63;;;10.52;;
45065;SDS011;30830;53.704;10.004;2023-01-28T15:13:03;13.10;;;10.00;;
45065;SDS011;30830;53.704;10.004;2023-01-28T15:15:40;11.73;;;10.15;;
45065;SDS011;30830;53.704;10.004;2023-01-28T15:18:20;13.68;;;9.32;;
45065;SDS011;30830;53.704;10.004;2023-01-28T15:20:54;13.55;;;9.20;;
45065;SDS011;30830;53.704;10.004;2023-01-28T15:23:25;12.60;;;9.73;;
45065;SDS011;30830;53.704;10.004;2023-01-28T15:25:53;16.38;;;9.75;;
45065;SDS011;30830;53.704;10.004;2023-01-28T15:28:26;12.88;;;9.45;;
45065;SDS011;30830;53.704;10.004;2023-01-28T15:30:54;14.18;;;10.70;;
45065;SDS011;30830;53.704;10.004;2023-01-28T15:33:21;17.40;;;12.50;;
45065;SDS011;30830;53.704;10.004;2023-01-28T15:35:56;25.63;;;16.42;;
45065;SDS011;30830;53.704;10.004;2023-01-28T15:38:24;15.38;;;11.27;;
45065;SDS011;30830;53.704;10.004;2023-01-28T15:40:55;14.85;;;10.20;;
45065;SDS011;30830;53.704;10.004;2023-01-28T15:43:28;15.50;;;11.25;;
45065;SDS011;30830;53.704;10.004;2023-01-28T15:45:56;16.58;;;11.52;;
45065;SDS011;30830;53.704;10.004;2023-01-28T15:48:23;16.65;;;11.65;;
45065;SDS011;30830;53.704;10.004;2023-01-28T15:53:23;17.88;;;11.38;;
45065;SDS011;30830;53.704;10.004;2023-01-28T15:55:49;15.23;;;10.85;;
45065;SDS011;30830;53.704;10.004;2023-01-28T15:58:16;12.73;;;10.00;;
45065;SDS011;30830;53.704;10.004;2023-01-28T16:00:43;14.15;;;10.48;;
45065;SDS011;30830;53.704;10.004;2023-01-28T16:03:09;16.20;;;10.63;;
45065;SDS011;30830;53.704;10.004;2023-01-28T16:05:51;15.68;;;10.27;;
45065;SDS011;30830;53.704;10.004;2023-01-28T16:08:25;14.43;;;10.68;;
45065;SDS011;30830;53.704;10.004;2023-01-28T16:11:36;14.95;;;10.65;;
45065;SDS011;30830;53.704;10.004;2023-01-28T16:16:48;16.40;;;10.60;;
45065;SDS011;30830;53.704;10.004;2023-01-28T16:19:24;14.15;;;10.95;;
45065;SDS011;30830;53.704;10.004;2023-01-28T16:22:19;35.13;;;18.30;;
45065;SDS011;30830;53.704;10.004;2023-01-28T16:24:54;26.52;;;14.40;;
45065;SDS011;30830;53.704;10.004;2023-01-28T16:27:21;17.48;;;11.50;;
45065;SDS011;30830;53.704;10.004;2023-01-28T16:29:47;20.63;;;13.13;;